createdAt,value
2018-08-12T00:01:01.051Z,2.03
2018-08-12T00:03:31.371Z,2.20
2018-08-12T00:06:01.352Z,2.20
2018-08-12T00:08:31.342Z,2.20
2018-08-12T00:11:01.389Z,1.97
2018-08-12T00:13:31.408Z,2.20
2018-08-12T00:16:01.391Z,2.20
2018-08-12T00:18:31.422Z,2.10
2018-08-12T00:21:01.324Z,2.50
2018-08-12T00:23:31.300Z,2.50
2018-08-12T00:26:01.260Z,2.57
2018-08-12T00:28:31.492Z,2.73
2018-08-12T00:31:01.364Z,2.63
2018-08-12T00:33:31.976Z,2.40
2018-08-12T00:36:02.063Z,2.70
2018-08-12T00:38:32.153Z,2.67
2018-08-12T00:41:02.145Z,2.90
2018-08-12T00:43:32.121Z,2.60
2018-08-12T00:46:02.044Z,2.80
2018-08-12T00:48:32.333Z,2.70
2018-08-12T00:51:02.312Z,2.43
2018-08-12T00:53:32.343Z,2.63
2018-08-12T00:56:02.459Z,2.60
2018-08-12T00:58:32.455Z,3.07
2018-08-12T01:01:02.461Z,2.67
2018-08-12T01:03:32.543Z,2.77
2018-08-12T01:06:02.613Z,2.93
2018-08-12T01:08:32.665Z,2.77
2018-08-12T01:11:02.606Z,3.27
2018-08-12T01:13:32.425Z,2.57
2018-08-12T01:16:02.699Z,3.13
2018-08-12T01:18:33.247Z,3.00
2018-08-12T01:21:03.218Z,2.87
2018-08-12T01:23:33.423Z,2.73
2018-08-12T01:26:03.629Z,3.00
2018-08-12T01:28:33.463Z,3.30
2018-08-12T01:31:03.425Z,2.90
2018-08-12T01:33:33.387Z,3.00
2018-08-12T01:36:03.212Z,2.93
2018-08-12T01:38:33.308Z,2.90
2018-08-12T01:41:03.419Z,2.90
2018-08-12T01:43:33.365Z,2.90
2018-08-12T01:46:03.279Z,2.70
2018-08-12T01:48:33.235Z,3.10
2018-08-12T01:51:03.196Z,2.80
2018-08-12T01:53:33.087Z,3.23
2018-08-12T01:56:04.464Z,3.17
2018-08-12T01:58:34.409Z,3.20
2018-08-12T02:01:04.323Z,3.10
2018-08-12T02:03:34.219Z,3.60
2018-08-12T02:06:04.271Z,3.00
2018-08-12T02:08:34.217Z,3.07
2018-08-12T02:11:04.088Z,3.40
2018-08-12T02:13:33.963Z,3.10
2018-08-12T02:16:04.260Z,3.00
2018-08-12T02:18:34.168Z,3.23
2018-08-12T02:21:04.044Z,3.33
2018-08-12T02:23:33.903Z,3.10
2018-08-12T02:26:03.964Z,3.20
2018-08-12T02:28:33.886Z,3.20
2018-08-12T02:31:03.828Z,3.30
2018-08-12T02:33:33.664Z,3.00
2018-08-12T02:36:03.605Z,2.90
2018-08-12T02:38:33.544Z,3.20
2018-08-12T02:41:03.893Z,2.63
2018-08-12T02:43:33.648Z,2.70
2018-08-12T02:46:03.788Z,2.70
2018-08-12T02:48:33.777Z,3.50
2018-08-12T02:51:03.925Z,2.70
2018-08-12T02:53:33.759Z,2.80
2018-08-12T02:56:03.740Z,2.90
2018-08-12T02:58:33.769Z,2.90
2018-08-12T03:01:03.744Z,2.77
2018-08-12T03:03:33.715Z,2.87
2018-08-12T03:06:03.601Z,2.70
2018-08-12T03:08:33.440Z,2.93
2018-08-12T03:11:03.197Z,2.83
2018-08-12T03:13:33.208Z,2.83
2018-08-12T03:16:03.160Z,2.80
2018-08-12T03:18:33.117Z,2.47
2018-08-12T03:21:03.223Z,2.73
2018-08-12T03:23:33.200Z,2.43
2018-08-12T03:26:03.502Z,2.70
2018-08-12T03:28:33.430Z,2.30
2018-08-12T03:31:03.401Z,2.40
2018-08-12T03:33:33.481Z,2.23
2018-08-12T03:36:03.535Z,2.10
2018-08-12T03:38:33.457Z,2.20
2018-08-12T03:41:03.359Z,2.40
2018-08-12T03:43:33.292Z,2.27
2018-08-12T03:46:03.202Z,2.40
2018-08-12T03:48:33.479Z,2.17
2018-08-12T03:51:03.652Z,2.10
2018-08-12T03:53:33.701Z,2.33
2018-08-12T03:56:03.596Z,2.00
2018-08-12T03:58:33.427Z,1.90
2018-08-12T04:01:03.600Z,2.10
2018-08-12T04:03:33.396Z,2.33
2018-08-12T04:06:03.466Z,2.13
2018-08-12T04:08:33.261Z,2.10
2018-08-12T04:11:03.149Z,2.10
2018-08-12T04:13:33.105Z,2.27
2018-08-12T04:16:03.174Z,1.80
2018-08-12T04:18:33.250Z,1.90
2018-08-12T04:21:03.648Z,2.00
2018-08-12T04:23:33.517Z,2.07
2018-08-12T04:26:03.485Z,2.30
2018-08-12T04:28:33.300Z,2.00
2018-08-12T04:31:03.616Z,2.03
2018-08-12T04:33:33.512Z,1.90
2018-08-12T04:36:03.389Z,2.10
2018-08-12T04:38:33.362Z,1.90
2018-08-12T04:41:03.221Z,2.20
2018-08-12T04:43:33.680Z,1.70
2018-08-12T04:46:03.677Z,1.60
2018-08-12T04:48:33.606Z,1.87
2018-08-12T04:51:03.548Z,2.03
2018-08-12T04:53:33.375Z,1.73
2018-08-12T04:56:03.498Z,1.97
2018-08-12T04:58:33.383Z,2.00
2018-08-12T05:01:03.296Z,1.80
2018-08-12T05:03:33.108Z,1.70
2018-08-12T05:06:03.051Z,2.00
2018-08-12T05:08:32.925Z,1.83
2018-08-12T05:11:02.764Z,1.80
2018-08-12T05:13:32.660Z,1.80
2018-08-12T05:16:02.635Z,2.00
2018-08-12T05:18:32.483Z,1.53
2018-08-12T05:21:02.490Z,1.70
2018-08-12T05:23:32.376Z,2.00
2018-08-12T05:26:02.260Z,1.90
2018-08-12T05:28:32.218Z,1.87
2018-08-12T05:31:02.153Z,1.70
2018-08-12T05:33:32.155Z,1.60
2018-08-12T05:36:02.019Z,1.80
2018-08-12T05:38:32.047Z,1.90
2018-08-12T05:41:01.932Z,1.77
2018-08-12T05:43:31.917Z,1.67
2018-08-12T05:46:01.771Z,1.60
2018-08-12T05:48:31.919Z,1.77
2018-08-12T05:51:01.859Z,1.97
2018-08-12T05:53:31.730Z,1.70
2018-08-12T05:56:01.689Z,1.60
2018-08-12T05:58:31.775Z,1.50
2018-08-12T06:01:01.819Z,1.60
2018-08-12T06:03:31.902Z,1.70
2018-08-12T06:06:01.752Z,1.67
2018-08-12T06:08:31.671Z,1.73
2018-08-12T06:11:01.784Z,1.50
2018-08-12T06:13:31.789Z,1.63
2018-08-12T06:16:01.685Z,1.63
2018-08-12T06:18:31.597Z,1.60
2018-08-12T06:21:01.496Z,1.50
2018-08-12T06:23:31.402Z,1.83
2018-08-12T06:26:01.463Z,1.50
2018-08-12T06:28:31.392Z,1.73
2018-08-12T06:31:01.278Z,1.70
2018-08-12T06:33:31.272Z,1.70
2018-08-12T06:36:01.283Z,1.80
2018-08-12T06:38:31.325Z,1.40
2018-08-12T06:41:01.436Z,1.50
2018-08-12T06:43:31.465Z,1.40
2018-08-12T06:46:01.692Z,1.60
2018-08-12T06:48:31.750Z,1.67
2018-08-12T06:51:01.953Z,1.80
2018-08-12T06:53:32.189Z,1.53
2018-08-12T06:56:02.451Z,1.90
2018-08-12T06:58:32.309Z,1.87
2018-08-12T07:01:02.294Z,1.93
2018-08-12T07:03:32.482Z,1.93
2018-08-12T07:06:02.330Z,1.80
2018-08-12T07:08:32.401Z,1.67
2018-08-12T07:11:02.336Z,1.73
2018-08-12T07:13:32.690Z,1.80
2018-08-12T07:16:02.973Z,1.90
2018-08-12T07:18:32.960Z,1.90
2018-08-12T07:21:03.207Z,2.30
2018-08-12T07:23:33.208Z,2.47
2018-08-12T07:26:03.141Z,1.83
2018-08-12T07:28:33.035Z,2.40
2018-08-12T07:31:02.953Z,2.17
2018-08-12T07:33:32.947Z,2.40
2018-08-12T07:36:02.992Z,1.90
2018-08-12T07:38:32.979Z,1.63
2018-08-12T07:41:02.815Z,1.80
2018-08-12T07:43:32.796Z,1.90
2018-08-12T07:46:03.031Z,2.37
2018-08-12T07:48:33.043Z,2.23
2018-08-12T07:51:03.017Z,1.87
2018-08-12T07:53:33.075Z,1.90
2018-08-12T07:56:03.276Z,1.57
2018-08-12T07:58:33.555Z,2.30
2018-08-12T08:01:03.612Z,2.10
2018-08-12T08:03:33.498Z,2.10
2018-08-12T08:06:03.547Z,2.03
2018-08-12T08:08:33.494Z,2.03
2018-08-12T08:11:03.807Z,2.30
2018-08-12T08:13:33.856Z,1.90
2018-08-12T08:16:03.764Z,1.77
2018-08-12T08:18:33.663Z,2.00
2018-08-12T08:21:03.642Z,2.00
2018-08-12T08:23:33.608Z,1.90
2018-08-12T08:26:03.579Z,2.57
2018-08-12T08:28:33.590Z,1.97
2018-08-12T08:31:03.535Z,2.33
2018-08-12T08:33:33.484Z,1.70
2018-08-12T08:36:03.586Z,1.90
2018-08-12T08:38:33.637Z,2.00
2018-08-12T08:41:03.571Z,2.20
2018-08-12T08:43:33.459Z,2.07
2018-08-12T08:46:03.485Z,1.77
2018-08-12T08:48:33.389Z,2.30
2018-08-12T08:51:03.937Z,2.20
2018-08-12T08:53:33.849Z,2.17
2018-08-12T08:56:03.723Z,2.17
2018-08-12T08:58:33.734Z,2.03
2018-08-12T09:01:03.874Z,1.93
2018-08-12T09:03:33.766Z,1.73
2018-08-12T09:06:03.730Z,1.87
2018-08-12T09:08:33.939Z,1.90
2018-08-12T09:11:03.775Z,1.60
2018-08-12T09:13:33.717Z,1.97
2018-08-12T09:16:03.728Z,1.60
2018-08-12T09:18:33.830Z,1.83
2018-08-12T09:21:04.033Z,1.53
2018-08-12T09:23:34.376Z,1.80
2018-08-12T09:26:04.403Z,1.70
2018-08-12T09:28:34.504Z,2.23
2018-08-12T09:31:04.728Z,2.03
2018-08-12T09:33:34.628Z,2.30
2018-08-12T09:36:04.835Z,1.80
2018-08-12T09:38:34.745Z,1.70
2018-08-12T09:41:04.761Z,1.50
2018-08-12T09:43:34.777Z,1.50
2018-08-12T09:46:04.886Z,1.30
2018-08-12T09:48:34.715Z,1.20
2018-08-12T09:51:04.787Z,1.60
2018-08-12T09:53:34.746Z,1.70
2018-08-12T09:56:04.980Z,1.57
2018-08-12T09:58:35.234Z,1.50
2018-08-12T10:01:05.257Z,1.67
2018-08-12T10:03:35.117Z,1.40
2018-08-12T10:06:05.466Z,1.60
2018-08-12T10:08:35.368Z,1.67
2018-08-12T10:11:05.516Z,1.23
2018-08-12T10:13:35.568Z,1.60
2018-08-12T10:16:05.606Z,1.60
2018-08-12T10:18:35.509Z,1.50
2018-08-12T10:21:05.467Z,1.37
2018-08-12T10:23:35.396Z,1.47
2018-08-12T10:26:05.696Z,1.50
2018-08-12T10:28:35.693Z,1.50
2018-08-12T10:31:05.734Z,1.50
2018-08-12T10:33:35.867Z,1.60
2018-08-12T10:36:05.873Z,1.60
2018-08-12T10:38:35.826Z,1.70
2018-08-12T10:41:05.876Z,1.70
2018-08-12T10:43:36.106Z,1.50
2018-08-12T10:46:06.416Z,1.70
2018-08-12T10:48:36.404Z,1.67
2018-08-12T10:51:06.769Z,1.57
2018-08-12T10:53:36.960Z,1.70
2018-08-12T10:56:07.757Z,1.50
2018-08-12T10:58:37.887Z,1.60
2018-08-12T11:01:08.091Z,1.50
2018-08-12T11:03:38.469Z,1.47
2018-08-12T11:06:08.720Z,1.60
2018-08-12T11:08:39.073Z,1.30
2018-08-12T11:11:09.282Z,1.70
2018-08-12T11:13:39.593Z,1.37
2018-08-12T11:16:09.787Z,1.50
2018-08-12T11:18:39.753Z,1.40
2018-08-12T11:21:09.602Z,1.50
2018-08-12T11:23:39.603Z,1.43
2018-08-12T11:26:09.647Z,1.50
2018-08-12T11:28:39.736Z,1.80
2018-08-12T11:31:09.688Z,1.53
2018-08-12T11:33:39.602Z,1.40
2018-08-12T11:36:09.524Z,1.30
2018-08-12T11:38:39.561Z,1.40
2018-08-12T11:41:09.604Z,1.50
2018-08-12T11:43:39.569Z,1.33
2018-08-12T11:46:09.386Z,1.50
2018-08-12T11:48:39.504Z,1.30
2018-08-12T11:51:09.367Z,1.40
2018-08-12T11:53:39.705Z,1.30
2018-08-12T11:56:09.730Z,1.50
2018-08-12T11:58:39.658Z,1.13
2018-08-12T12:01:09.715Z,1.20
2018-08-12T12:03:39.988Z,1.53
2018-08-12T12:06:10.192Z,1.30
2018-08-12T12:08:40.356Z,1.50
2018-08-12T12:11:10.462Z,1.53
2018-08-12T12:13:40.370Z,1.33
2018-08-12T12:16:10.270Z,1.33
2018-08-12T12:18:40.322Z,1.40
2018-08-12T12:21:10.323Z,1.20
2018-08-12T12:23:40.463Z,1.10
2018-08-12T12:26:10.436Z,1.23
2018-08-12T12:28:40.467Z,1.10
2018-08-12T12:31:10.382Z,1.13
2018-08-12T12:33:40.536Z,1.13
2018-08-12T12:36:10.876Z,1.40
2018-08-12T12:38:40.829Z,1.07
2018-08-12T12:41:10.689Z,1.20
2018-08-12T12:43:40.729Z,1.13
2018-08-12T12:46:10.953Z,1.17
2018-08-12T12:48:41.216Z,1.30
2018-08-12T12:51:11.617Z,1.20
2018-08-12T12:53:41.552Z,1.10
2018-08-12T12:56:11.538Z,1.20
2018-08-12T12:58:41.358Z,1.10
2018-08-12T13:01:11.746Z,1.27
2018-08-12T13:03:42.034Z,1.33
2018-08-12T13:06:12.423Z,1.07
2018-08-12T13:08:42.312Z,1.10
2018-08-12T13:11:12.232Z,0.90
2018-08-12T13:13:42.145Z,1.20
2018-08-12T13:16:12.148Z,1.30
2018-08-12T13:18:42.281Z,1.23
2018-08-12T13:21:12.482Z,1.60
2018-08-12T13:23:42.468Z,1.00
2018-08-12T13:26:12.230Z,1.10
2018-08-12T13:28:42.110Z,1.03
2018-08-12T13:31:11.930Z,1.00
2018-08-12T13:33:41.948Z,1.10
2018-08-12T13:36:12.108Z,1.30
2018-08-12T13:38:42.079Z,1.00
2018-08-12T13:41:12.094Z,1.13
2018-08-12T13:43:42.100Z,1.40
2018-08-12T13:46:12.277Z,1.07
2018-08-12T13:48:42.557Z,1.30
2018-08-12T13:51:12.523Z,1.13
2018-08-12T13:53:42.393Z,1.20
2018-08-12T13:56:12.536Z,1.57
2018-08-12T13:58:42.460Z,1.70
2018-08-12T14:01:12.542Z,2.47
2018-08-12T14:03:42.602Z,1.60
2018-08-12T14:06:12.633Z,1.50
2018-08-12T14:08:42.930Z,1.50
2018-08-12T14:11:12.983Z,1.40
2018-08-12T14:13:43.266Z,1.00
2018-08-12T14:16:13.110Z,1.20
2018-08-12T14:18:43.440Z,1.10
2018-08-12T14:21:13.351Z,1.20
2018-08-12T14:23:43.356Z,1.10
2018-08-12T14:26:13.435Z,1.57
2018-08-12T14:28:43.523Z,1.20
2018-08-12T14:31:13.552Z,1.10
2018-08-12T14:33:43.525Z,1.40
2018-08-12T14:36:13.519Z,1.23
2018-08-12T14:38:43.527Z,1.50
2018-08-12T14:41:13.509Z,1.20
2018-08-12T14:43:43.386Z,1.20
2018-08-12T14:46:13.499Z,1.00
2018-08-12T14:48:43.543Z,1.22
2018-08-12T14:51:13.564Z,1.30
2018-08-12T14:53:43.580Z,1.20
2018-08-12T14:56:13.917Z,1.20
2018-08-12T14:58:44.137Z,1.30
2018-08-12T15:01:14.012Z,1.60
2018-08-12T15:03:43.817Z,1.47
2018-08-12T15:06:13.852Z,1.40
2018-08-12T15:08:43.913Z,1.30
2018-08-12T15:11:13.882Z,1.42
2018-08-12T15:13:43.880Z,1.30
2018-08-12T15:16:13.927Z,1.30
2018-08-12T15:18:43.903Z,1.42
2018-08-12T15:21:13.809Z,1.30
2018-08-12T15:23:43.783Z,1.40
2018-08-12T15:26:13.691Z,1.37
2018-08-12T15:28:43.647Z,1.37
2018-08-12T15:31:13.928Z,2.00
2018-08-12T15:33:43.984Z,1.47
2018-08-12T15:36:14.003Z,1.40
2018-08-12T15:38:43.768Z,1.53
2018-08-12T15:41:14.244Z,1.23
2018-08-12T15:43:44.191Z,1.30
2018-08-12T15:46:14.444Z,1.60
2018-08-12T15:48:44.581Z,1.47
2018-08-12T15:51:14.822Z,1.47
2018-08-12T15:53:44.744Z,1.40
2018-08-12T15:56:14.999Z,1.37
2018-08-12T15:58:45.402Z,1.67
2018-08-12T16:01:15.575Z,1.50
2018-08-12T16:03:45.724Z,1.33
2018-08-12T16:06:16.009Z,1.50
2018-08-12T16:08:46.389Z,1.53
2018-08-12T16:11:16.759Z,1.40
2018-08-12T16:13:46.900Z,1.50
2018-08-12T16:16:17.086Z,1.60
2018-08-12T16:18:47.221Z,1.40
2018-08-12T16:21:17.517Z,1.30
2018-08-12T16:23:47.554Z,1.50
2018-08-12T16:26:17.615Z,1.60
2018-08-12T16:28:47.600Z,1.60
2018-08-12T16:31:17.705Z,1.60
2018-08-12T16:33:47.835Z,1.43
2018-08-12T16:36:17.920Z,1.40
2018-08-12T16:38:48.020Z,1.40
2018-08-12T16:41:18.124Z,1.50
2018-08-12T16:43:48.376Z,1.53
2018-08-12T16:46:18.358Z,1.50
2018-08-12T16:48:48.389Z,1.37
2018-08-12T16:51:18.524Z,1.63
2018-08-12T16:53:48.409Z,1.40
2018-08-12T16:56:18.408Z,1.53
2018-08-12T16:58:48.460Z,1.50
2018-08-12T17:01:18.650Z,1.60
2018-08-12T17:03:48.790Z,1.40
2018-08-12T17:06:18.695Z,1.40
2018-08-12T17:08:48.948Z,1.50
2018-08-12T17:11:19.220Z,1.63
2018-08-12T17:13:49.484Z,1.80
2018-08-12T17:16:19.575Z,1.73
2018-08-12T17:18:49.750Z,1.53
2018-08-12T17:21:20.215Z,2.07
2018-08-12T17:23:50.180Z,1.50
2018-08-12T17:26:19.967Z,1.73
2018-08-12T17:28:49.887Z,1.80
2018-08-12T17:31:19.989Z,1.57
2018-08-12T17:33:49.882Z,1.47
2018-08-12T17:36:19.851Z,1.57
2018-08-12T17:38:49.758Z,1.73
2018-08-12T17:41:20.189Z,1.90
2018-08-12T17:43:50.270Z,1.60
2018-08-12T17:46:20.282Z,1.87
2018-08-12T17:48:50.232Z,1.90
2018-08-12T17:51:20.246Z,1.73
2018-08-12T17:53:50.258Z,1.83
2018-08-12T17:56:20.238Z,1.83
2018-08-12T17:58:50.165Z,2.20
2018-08-12T18:01:20.376Z,1.93
2018-08-12T18:03:50.544Z,2.10
2018-08-12T18:06:20.828Z,1.90
2018-08-12T18:08:51.100Z,2.10
2018-08-12T18:11:21.071Z,2.03
2018-08-12T18:13:50.986Z,1.80
2018-08-12T18:16:20.957Z,1.83
2018-08-12T18:18:51.036Z,2.20
2018-08-12T18:21:21.402Z,1.80
2018-08-12T18:23:51.268Z,1.80
2018-08-12T18:26:21.228Z,1.90
2018-08-12T18:28:51.434Z,1.90
2018-08-12T18:31:22.093Z,1.87
2018-08-12T18:33:51.939Z,2.00
2018-08-12T18:36:21.935Z,1.93
2018-08-12T18:38:51.759Z,2.37
2018-08-12T18:41:21.914Z,2.30
2018-08-12T18:43:51.947Z,2.30
2018-08-12T18:46:22.167Z,2.13
2018-08-12T18:48:52.492Z,2.30
2018-08-12T18:51:22.602Z,1.90
2018-08-12T18:53:52.725Z,2.17
2018-08-12T18:56:22.685Z,2.20
2018-08-12T18:58:52.631Z,2.20
2018-08-12T19:01:22.723Z,2.10
2018-08-12T19:03:52.744Z,2.20
2018-08-12T19:06:22.714Z,2.23
2018-08-12T19:08:52.675Z,2.23
2018-08-12T19:11:22.928Z,2.70
2018-08-12T19:13:52.770Z,2.37
2018-08-12T19:16:22.758Z,2.20
2018-08-12T19:18:52.597Z,2.17
2018-08-12T19:21:22.591Z,2.60
2018-08-12T19:23:52.609Z,2.13
2018-08-12T19:26:23.459Z,2.53
2018-08-12T19:28:53.578Z,2.17
2018-08-12T19:31:23.637Z,2.37
2018-08-12T19:33:53.870Z,2.33
2018-08-12T19:36:23.886Z,2.13
2018-08-12T19:38:53.951Z,2.20
2018-08-12T19:41:24.068Z,2.10
2018-08-12T19:43:54.115Z,2.53
2018-08-12T19:46:24.341Z,2.20
2018-08-12T19:48:54.919Z,2.53
2018-08-12T19:53:55.625Z,2.47
2018-08-12T19:56:25.618Z,2.10
2018-08-12T19:58:55.999Z,2.43
2018-08-12T20:01:26.303Z,2.60
2018-08-12T20:03:56.298Z,2.10
2018-08-12T20:06:26.419Z,2.47
2018-08-12T20:08:56.568Z,2.40
2018-08-12T20:11:26.556Z,2.77
2018-08-12T20:13:56.956Z,2.50
2018-08-12T20:16:26.883Z,2.50
2018-08-12T20:18:56.821Z,2.83
2018-08-12T20:21:26.715Z,2.73
2018-08-12T20:23:56.705Z,2.50
2018-08-12T20:26:26.786Z,2.50
2018-08-12T20:28:56.912Z,2.77
2018-08-12T20:31:26.913Z,2.60
2018-08-12T20:33:56.924Z,2.60
2018-08-12T20:36:26.949Z,3.00
2018-08-12T20:38:57.073Z,2.50
2018-08-12T20:41:27.284Z,2.90
2018-08-12T20:43:57.251Z,2.70
2018-08-12T20:46:27.202Z,3.07
2018-08-12T20:48:58.643Z,2.70
2018-08-12T20:51:28.977Z,2.90
2018-08-12T20:53:59.051Z,3.13
2018-08-12T20:56:29.002Z,2.80
2018-08-12T20:58:58.994Z,3.33
2018-08-12T21:01:29.009Z,3.17
2018-08-12T21:03:58.849Z,3.27
2018-08-12T21:06:28.883Z,2.47
2018-08-12T21:08:58.827Z,2.87
2018-08-12T21:11:28.822Z,2.83
2018-08-12T21:13:58.668Z,2.60
2018-08-12T21:16:28.886Z,2.30
2018-08-12T21:18:58.926Z,2.33
2018-08-12T21:21:29.103Z,2.50
2018-08-12T21:23:59.182Z,2.33
2018-08-12T21:26:29.285Z,2.63
2018-08-12T21:28:59.359Z,2.57
2018-08-12T21:31:29.372Z,2.80
2018-08-12T21:33:59.559Z,2.70
2018-08-12T21:36:29.529Z,2.63
2018-08-12T21:38:59.969Z,2.23
2018-08-12T21:41:29.769Z,2.80
2018-08-12T21:43:59.603Z,2.57
2018-08-12T21:46:29.636Z,2.43
2018-08-12T21:48:59.476Z,2.57
2018-08-12T21:51:29.578Z,2.50
2018-08-12T21:53:59.398Z,2.20
2018-08-12T21:56:29.468Z,2.50
2018-08-12T21:58:59.558Z,2.27
2018-08-12T22:01:29.510Z,2.30
2018-08-12T22:03:59.709Z,2.43
2018-08-12T22:06:29.952Z,2.57
2018-08-12T22:08:59.954Z,2.43
2018-08-12T22:11:29.866Z,2.37
2018-08-12T22:14:00.017Z,2.50
2018-08-12T22:16:29.890Z,2.40
2018-08-12T22:18:59.730Z,2.53
2018-08-12T22:21:29.742Z,2.23
2018-08-12T22:23:59.693Z,2.60
2018-08-12T22:26:29.617Z,2.40
2018-08-12T22:28:59.566Z,2.17
2018-08-12T22:31:29.578Z,2.50
2018-08-12T22:33:59.578Z,2.10
2018-08-12T22:36:29.789Z,2.53
2018-08-12T22:38:59.803Z,2.60
2018-08-12T22:41:29.868Z,2.40
2018-08-12T22:44:00.001Z,2.33
2018-08-12T22:46:29.991Z,2.37
2018-08-12T22:49:00.018Z,2.60
2018-08-12T22:51:30.124Z,2.43
2018-08-12T22:54:00.275Z,2.20
2018-08-12T22:56:30.429Z,2.33
2018-08-12T22:59:00.292Z,2.20
2018-08-12T23:01:30.452Z,2.13
2018-08-12T23:04:00.629Z,2.20
2018-08-12T23:06:30.878Z,2.20
2018-08-12T23:09:00.733Z,2.47
2018-08-12T23:11:30.740Z,2.00
2018-08-12T23:14:00.627Z,2.20
2018-08-12T23:16:47.436Z,2.30
2018-08-12T23:19:17.335Z,2.13
2018-08-12T23:21:47.294Z,2.30
2018-08-12T23:24:17.091Z,2.20
2018-08-12T23:26:47.152Z,2.27
2018-08-12T23:29:17.008Z,2.67
2018-08-12T23:31:46.912Z,2.70
2018-08-12T23:34:16.845Z,1.90
2018-08-12T23:36:46.768Z,2.10
2018-08-12T23:39:16.736Z,2.17
2018-08-12T23:41:46.677Z,2.17
2018-08-12T23:44:16.608Z,2.20
2018-08-12T23:46:46.502Z,2.20
2018-08-12T23:49:16.543Z,2.43
2018-08-12T23:51:46.409Z,2.17
2018-08-12T23:54:16.375Z,2.13
2018-08-12T23:56:46.383Z,1.73
2018-08-12T23:59:16.315Z,2.03
